createdAt,value
2019-02-22T00:01:43.115Z,27.53
2019-02-22T00:04:12.972Z,26.77
2019-02-22T00:06:42.955Z,27.80
2019-02-22T00:09:12.848Z,27.60
2019-02-22T00:11:42.579Z,26.73
2019-02-22T00:14:12.602Z,28.03
2019-02-22T00:16:42.422Z,28.10
2019-02-22T00:19:12.206Z,28.33
2019-02-22T00:21:42.229Z,28.67
2019-02-22T00:24:12.082Z,27.47
2019-02-22T00:26:41.794Z,27.33
2019-02-22T00:29:13.619Z,27.80
2019-02-22T00:31:43.363Z,27.47
2019-02-22T00:34:16.260Z,28.27
2019-02-22T00:36:47.218Z,29.83
2019-02-22T00:39:18.302Z,29.60
2019-02-22T00:41:48.032Z,30.23
2019-02-22T00:44:21.533Z,28.87
2019-02-22T00:46:51.239Z,29.33
2019-02-22T00:49:26.618Z,28.93
2019-02-22T00:51:56.292Z,30.27
2019-02-22T00:54:26.247Z,28.40
2019-02-22T00:56:56.297Z,29.93
2019-02-22T00:59:29.266Z,29.23
2019-02-22T01:01:59.093Z,28.90
2019-02-22T01:04:31.863Z,29.60
2019-02-22T01:07:04.037Z,29.00
2019-02-22T01:09:35.186Z,31.40
2019-02-22T01:12:04.847Z,31.33
2019-02-22T01:14:37.722Z,29.87
2019-02-22T01:17:07.777Z,30.97
2019-02-22T01:19:40.306Z,31.30
2019-02-22T01:22:10.054Z,29.87
2019-02-22T01:24:42.734Z,30.63
2019-02-22T01:27:12.570Z,29.40
2019-02-22T01:29:46.729Z,31.97
2019-02-22T01:32:16.378Z,31.37
2019-02-22T01:34:47.841Z,31.27
2019-02-22T01:37:17.851Z,31.17
2019-02-22T01:39:54.942Z,31.00
2019-02-22T01:45:42.754Z,30.20
2019-02-22T01:54:40.001Z,31.93
2019-02-22T02:00:38.277Z,32.40
2019-02-22T02:18:53.357Z,33.07
2019-02-22T02:24:51.472Z,32.77
2019-02-22T02:27:40.203Z,33.20
2019-02-22T02:30:28.931Z,33.27
2019-02-22T02:33:36.553Z,32.17
2019-02-22T02:36:25.539Z,34.07
2019-02-22T02:39:14.238Z,31.73
2019-02-22T02:41:55.535Z,33.43
2019-02-22T02:47:19.040Z,32.40
2019-02-22T02:50:00.500Z,32.73
2019-02-22T02:52:42.051Z,32.63
2019-02-22T02:55:23.629Z,32.90
2019-02-22T02:58:05.055Z,33.47
2019-02-22T03:00:46.825Z,32.37
2019-02-22T03:03:28.518Z,32.30
2019-02-22T03:06:28.831Z,33.50
2019-02-22T03:09:10.807Z,32.60
2019-02-22T03:11:52.250Z,31.63
2019-02-22T03:14:33.817Z,31.30
2019-02-22T03:17:03.691Z,30.93
2019-02-22T03:19:33.870Z,28.87
2019-02-22T03:22:03.589Z,31.30
2019-02-22T03:24:33.371Z,31.20
2019-02-22T03:27:03.661Z,30.70
2019-02-22T03:29:33.426Z,31.97
2019-02-22T03:32:03.126Z,31.53
2019-02-22T03:34:32.870Z,30.83
2019-02-22T03:37:02.613Z,31.53
2019-02-22T03:39:32.844Z,31.10
2019-02-22T03:42:02.544Z,30.77
2019-02-22T03:44:32.362Z,31.10
2019-02-22T03:47:04.241Z,29.50
2019-02-22T03:49:52.970Z,30.23
2019-02-22T03:53:11.363Z,31.73
2019-02-22T03:56:00.082Z,30.00
2019-02-22T04:01:39.148Z,31.23
2019-02-22T04:04:27.810Z,33.07
2019-02-22T04:07:17.546Z,33.23
2019-02-22T04:09:47.491Z,29.87
2019-02-22T04:12:36.230Z,32.30
2019-02-22T04:15:24.889Z,31.37
2019-02-22T04:21:02.559Z,31.60
2019-02-22T04:29:52.509Z,32.60
2019-02-22T04:32:41.225Z,31.93
2019-02-22T04:35:30.842Z,35.03
2019-02-22T04:38:19.632Z,33.03
2019-02-22T04:41:08.309Z,32.10
2019-02-22T04:43:38.403Z,34.07
2019-02-22T04:46:37.202Z,33.30
2019-02-22T04:49:10.290Z,33.17
2019-02-22T04:51:51.901Z,33.63
2019-02-22T04:57:07.112Z,35.37
2019-02-22T04:59:55.789Z,36.47
2019-02-22T05:02:44.498Z,35.23
2019-02-22T05:05:33.161Z,33.87
2019-02-22T05:08:21.931Z,35.43
2019-02-22T05:10:51.983Z,34.20
2019-02-22T05:16:39.961Z,34.83
2019-02-22T05:19:28.712Z,33.93
2019-02-22T05:25:07.893Z,35.20
2019-02-22T05:28:15.549Z,37.00
2019-02-22T05:31:04.254Z,35.33
2019-02-22T05:33:52.903Z,37.70
2019-02-22T05:36:22.666Z,37.77
2019-02-22T05:39:19.026Z,38.60
2019-02-22T05:42:07.265Z,35.90
2019-02-22T05:44:56.038Z,38.53
2019-02-22T05:50:46.922Z,37.93
2019-02-22T05:53:27.950Z,38.33
2019-02-22T05:56:15.126Z,39.73
2019-02-22T05:58:56.155Z,39.60
2019-02-22T06:01:26.453Z,37.47
2019-02-22T06:03:56.275Z,37.50
2019-02-22T06:06:26.016Z,38.53
2019-02-22T06:08:56.057Z,37.87
2019-02-22T06:11:26.256Z,37.73
2019-02-22T06:13:56.063Z,36.83
2019-02-22T06:16:27.210Z,38.03
2019-02-22T06:18:56.943Z,36.20
2019-02-22T06:21:30.460Z,38.00
2019-02-22T06:24:02.722Z,34.77
2019-02-22T06:26:34.575Z,34.90
2019-02-22T06:29:04.452Z,35.50
2019-02-22T06:31:35.241Z,35.80
2019-02-22T06:34:05.257Z,35.33
2019-02-22T06:36:47.509Z,34.63
2019-02-22T06:39:17.636Z,36.60
2019-02-22T06:41:47.352Z,36.83
2019-02-22T06:44:17.063Z,35.47
2019-02-22T06:46:47.064Z,35.03
2019-02-22T06:49:16.773Z,34.47
2019-02-22T06:51:49.914Z,36.23
2019-02-22T06:54:19.661Z,36.60
2019-02-22T06:56:52.276Z,36.43
2019-02-22T06:59:21.972Z,35.40
2019-02-22T07:01:53.429Z,34.77
2019-02-22T07:04:24.462Z,34.67
2019-02-22T07:06:57.078Z,34.63
2019-02-22T07:09:26.805Z,33.63
2019-02-22T07:12:02.319Z,35.33
2019-02-22T07:14:32.074Z,35.13
2019-02-22T07:17:01.824Z,34.90
2019-02-22T07:19:31.909Z,33.50
2019-02-22T07:22:04.633Z,33.30
2019-02-22T07:24:34.445Z,35.20
2019-02-22T07:27:13.153Z,33.87
2019-02-22T07:29:42.898Z,35.97
2019-02-22T07:32:15.225Z,36.53
2019-02-22T07:34:45.209Z,37.17
2019-02-22T07:37:34.084Z,38.10
2019-02-22T07:40:05.725Z,36.23
2019-02-22T07:42:54.531Z,35.83
2019-02-22T07:45:24.381Z,35.63
2019-02-22T07:47:54.159Z,34.27
2019-02-22T07:50:42.891Z,36.23
2019-02-22T07:53:12.660Z,35.87
2019-02-22T07:56:01.374Z,36.67
2019-02-22T07:58:31.549Z,35.83
2019-02-22T08:01:20.310Z,36.13
2019-02-22T08:03:50.483Z,36.63
2019-02-22T08:06:20.612Z,34.40
2019-02-22T08:08:52.427Z,34.63
2019-02-22T08:11:22.140Z,36.33
2019-02-22T08:13:53.217Z,34.77
2019-02-22T08:16:22.947Z,34.30
2019-02-22T08:19:01.160Z,34.97
2019-02-22T08:21:24.391Z,32.60
2019-02-22T08:23:54.490Z,31.63
2019-02-22T08:26:24.207Z,32.67
2019-02-22T08:28:54.224Z,31.43
2019-02-22T08:31:24.003Z,31.07
2019-02-22T08:33:57.121Z,31.40
2019-02-22T08:36:27.369Z,31.60
2019-02-22T08:38:57.151Z,29.33
2019-02-22T08:41:26.872Z,29.83
2019-02-22T08:43:57.963Z,30.27
2019-02-22T08:46:27.707Z,29.87
2019-02-22T08:48:57.539Z,29.30
2019-02-22T08:51:27.638Z,30.40
2019-02-22T08:53:59.483Z,28.87
2019-02-22T08:56:29.217Z,29.47
2019-02-22T08:59:02.932Z,29.50
2019-02-22T09:01:35.487Z,28.40
2019-02-22T09:04:07.620Z,28.70
2019-02-22T09:06:37.435Z,27.60
2019-02-22T09:09:09.097Z,30.33
2019-02-22T09:11:39.251Z,27.93
2019-02-22T09:14:15.431Z,30.30
2019-02-22T09:16:45.190Z,27.93
2019-02-22T09:19:15.503Z,28.93
2019-02-22T09:21:46.583Z,27.80
2019-02-22T09:24:19.640Z,27.13
2019-02-22T09:26:49.788Z,27.20
2019-02-22T09:29:20.462Z,27.13
2019-02-22T09:31:50.555Z,26.73
2019-02-22T09:34:23.925Z,27.97
2019-02-22T09:36:55.236Z,29.37
2019-02-22T09:39:24.948Z,28.03
2019-02-22T09:41:54.710Z,29.57
2019-02-22T09:44:27.210Z,31.10
2019-02-22T09:46:57.006Z,28.23
2019-02-22T09:49:31.900Z,29.50
2019-02-22T09:52:01.632Z,29.47
2019-02-22T09:54:50.740Z,28.97
2019-02-22T09:57:21.239Z,26.10
2019-02-22T09:59:51.287Z,27.20
2019-02-22T10:02:40.147Z,24.53
2019-02-22T10:05:10.494Z,23.37
2019-02-22T10:07:40.816Z,23.27
2019-02-22T10:10:11.766Z,21.73
2019-02-22T10:12:43.340Z,22.50
2019-02-22T10:15:32.619Z,19.27
2019-02-22T10:18:02.547Z,16.77
2019-02-22T10:20:51.458Z,15.77
2019-02-22T10:23:21.286Z,17.93
2019-02-22T10:26:10.100Z,18.50
2019-02-22T10:28:58.856Z,16.37
2019-02-22T10:31:28.988Z,17.07
2019-02-22T10:33:58.778Z,18.13
2019-02-22T10:36:28.615Z,17.87
2019-02-22T10:39:17.373Z,16.73
2019-02-22T10:42:06.280Z,16.10
2019-02-22T10:44:36.354Z,15.60
2019-02-22T10:47:06.239Z,14.63
2019-02-22T10:49:36.049Z,15.17
2019-02-22T10:52:24.787Z,16.27
2019-02-22T10:54:54.536Z,13.77
2019-02-22T10:57:24.330Z,14.80
2019-02-22T11:00:11.920Z,13.97
2019-02-22T11:02:25.623Z,11.93
2019-02-22T11:04:55.435Z,12.73
2019-02-22T11:07:25.554Z,12.23
2019-02-22T11:10:33.186Z,11.30
2019-02-22T11:13:03.218Z,11.63
2019-02-22T11:15:34.363Z,11.30
2019-02-22T11:18:04.283Z,11.47
2019-02-22T11:20:34.119Z,11.67
2019-02-22T11:23:04.265Z,11.73
2019-02-22T11:25:34.121Z,12.77
2019-02-22T11:28:41.840Z,13.27
2019-02-22T11:31:11.797Z,13.73
2019-02-22T11:33:42.167Z,13.83
2019-02-22T11:36:12.019Z,13.60
2019-02-22T11:38:41.831Z,13.70
2019-02-22T11:41:49.562Z,14.33
2019-02-22T11:44:19.377Z,14.93
2019-02-22T11:46:49.377Z,16.13
2019-02-22T11:49:19.117Z,15.90
2019-02-22T11:51:49.503Z,19.63
2019-02-22T11:54:19.602Z,19.67
2019-02-22T11:57:10.180Z,18.83
2019-02-22T11:59:58.881Z,19.30
2019-02-22T12:02:28.708Z,23.37
2019-02-22T12:04:58.817Z,23.50
2019-02-22T12:07:28.655Z,24.00
2019-02-22T12:10:17.534Z,23.20
2019-02-22T12:13:07.962Z,26.30
2019-02-22T12:15:38.941Z,26.00
2019-02-22T12:18:08.687Z,26.80
2019-02-22T12:20:38.559Z,28.23
2019-02-22T12:23:08.587Z,28.50
2019-02-22T12:25:38.379Z,28.77
2019-02-22T12:28:08.284Z,30.40
2019-02-22T12:31:09.523Z,31.90
2019-02-22T12:33:39.250Z,32.63
2019-02-22T12:36:28.105Z,33.33
2019-02-22T12:38:57.954Z,32.00
2019-02-22T12:41:28.063Z,32.10
2019-02-22T12:43:59.914Z,32.87
2019-02-22T12:46:29.717Z,31.90
2019-02-22T12:48:59.830Z,29.60
2019-02-22T12:51:29.609Z,29.37
2019-02-22T12:54:00.508Z,28.87
2019-02-22T12:56:55.911Z,26.07
2019-02-22T12:59:02.148Z,22.73
2019-02-22T13:01:32.071Z,21.93
2019-02-22T13:04:22.484Z,22.17
2019-02-22T13:06:53.494Z,23.47
2019-02-22T13:09:42.224Z,24.47
2019-02-22T13:12:14.615Z,22.93
2019-02-22T13:14:43.753Z,17.60
2019-02-22T13:17:14.527Z,18.07
2019-02-22T13:19:44.321Z,18.37
2019-02-22T13:22:14.356Z,19.17
2019-02-22T13:24:44.147Z,17.53
2019-02-22T13:27:13.879Z,18.43
2019-02-22T13:29:43.987Z,18.07
2019-02-22T13:32:13.861Z,16.37
2019-02-22T13:37:52.972Z,16.43
2019-02-22T13:40:22.687Z,14.20
2019-02-22T13:42:52.535Z,14.60
2019-02-22T13:45:26.499Z,14.60
2019-02-22T13:48:13.073Z,13.20
2019-02-22T13:51:02.246Z,13.80
2019-02-22T13:53:31.990Z,12.50
2019-02-22T13:56:29.296Z,11.67
2019-02-22T13:59:11.190Z,12.27
2019-02-22T14:01:41.739Z,11.20
2019-02-22T14:04:11.436Z,10.93
2019-02-22T14:06:41.279Z,9.93
2019-02-22T14:09:11.495Z,10.07
2019-02-22T14:11:41.252Z,10.70
2019-02-22T14:14:11.129Z,11.00
2019-02-22T14:16:41.000Z,9.90
2019-02-22T14:19:11.633Z,11.53
2019-02-22T14:24:49.437Z,8.80
2019-02-22T14:27:19.577Z,9.47
2019-02-22T14:35:51.107Z,11.23
2019-02-22T14:38:39.874Z,11.20
2019-02-22T14:41:09.897Z,10.83
2019-02-22T14:49:09.273Z,12.90
2019-02-22T14:51:39.026Z,12.50
2019-02-22T14:54:09.146Z,12.17
2019-02-22T14:56:39.428Z,12.87
2019-02-22T14:59:09.226Z,11.13
2019-02-22T15:01:58.323Z,11.03
2019-02-22T15:04:36.374Z,11.20
2019-02-22T15:09:46.903Z,12.90
2019-02-22T15:12:16.735Z,13.07
2019-02-22T15:17:49.106Z,14.30
2019-02-22T15:20:30.644Z,13.73
2019-02-22T15:25:51.003Z,11.97
2019-02-22T15:28:20.797Z,11.87
2019-02-22T15:37:00.484Z,12.97
2019-02-22T15:40:09.541Z,13.87
2019-02-22T15:42:40.621Z,13.90
2019-02-22T15:45:12.163Z,13.57
2019-02-22T15:47:42.212Z,13.63
2019-02-22T15:50:14.713Z,14.13
2019-02-22T15:52:45.007Z,13.03
2019-02-22T15:55:14.932Z,13.67
2019-02-22T15:57:44.763Z,14.30
2019-02-22T16:00:21.194Z,14.43
2019-02-22T16:02:51.075Z,14.93
2019-02-22T16:05:32.972Z,16.20
2019-02-22T16:08:02.995Z,16.43
2019-02-22T16:10:33.417Z,16.00
2019-02-22T16:13:03.475Z,16.43
2019-02-22T16:15:33.556Z,16.97
2019-02-22T16:18:05.717Z,18.20
2019-02-22T16:20:36.049Z,17.03
2019-02-22T16:23:07.301Z,16.80
2019-02-22T16:25:37.425Z,18.07
2019-02-22T16:28:07.854Z,17.43
2019-02-22T16:30:38.885Z,17.93
2019-02-22T16:33:09.021Z,17.67
2019-02-22T16:35:38.940Z,18.60
2019-02-22T16:38:09.053Z,17.10
2019-02-22T16:40:41.663Z,16.50
2019-02-22T16:43:11.505Z,17.47
2019-02-22T16:45:42.756Z,17.90
2019-02-22T16:48:12.567Z,16.97
2019-02-22T16:50:42.416Z,18.27
2019-02-22T16:53:12.553Z,17.97
2019-02-22T16:55:42.407Z,16.93
2019-02-22T16:58:12.786Z,17.77
2019-02-22T17:01:01.735Z,18.23
2019-02-22T17:03:31.992Z,17.00
2019-02-22T17:06:05.044Z,18.13
2019-02-22T17:08:35.156Z,17.40
2019-02-22T17:13:55.966Z,17.20
2019-02-22T17:16:45.443Z,18.23
2019-02-22T17:18:58.959Z,17.87
2019-02-22T17:21:53.509Z,19.37
2019-02-22T17:24:35.075Z,17.50
2019-02-22T17:27:16.220Z,18.83
2019-02-22T17:32:30.023Z,18.00
2019-02-22T17:35:18.944Z,18.67
2019-02-22T17:38:08.355Z,17.90
2019-02-22T17:43:47.219Z,17.27
2019-02-22T17:46:57.905Z,17.93
2019-02-22T17:49:27.544Z,18.57
2019-02-22T17:51:57.522Z,18.47
2019-02-22T17:54:55.341Z,19.10
2019-02-22T17:57:25.775Z,18.50
2019-02-22T17:59:56.152Z,18.63
2019-02-22T18:02:58.930Z,19.27
2019-02-22T18:05:35.743Z,19.77
2019-02-22T18:08:05.777Z,18.50
2019-02-22T18:10:35.995Z,19.00
2019-02-22T18:16:26.534Z,17.80
2019-02-22T18:22:38.589Z,18.07
2019-02-22T18:29:35.888Z,19.00
2019-02-22T18:40:47.101Z,18.13
2019-02-22T18:43:40.843Z,18.47
2019-02-22T18:48:55.863Z,19.40
2019-02-22T18:51:46.411Z,19.57
2019-02-22T18:54:16.468Z,20.00
2019-02-22T18:57:08.301Z,19.77
2019-02-22T18:59:38.787Z,20.43
2019-02-22T19:02:27.679Z,19.77
2019-02-22T19:05:35.951Z,22.80
2019-02-22T19:08:32.533Z,20.70
2019-02-22T19:11:12.768Z,21.23
2019-02-22T19:13:32.365Z,21.13
2019-02-22T19:16:02.914Z,21.00
2019-02-22T19:27:49.047Z,22.30
2019-02-22T19:30:39.557Z,22.40
2019-02-22T19:40:46.012Z,25.27
2019-02-22T19:48:00.706Z,22.80
2019-02-22T19:57:43.360Z,23.20
2019-02-22T20:00:35.055Z,21.20
2019-02-22T20:06:29.300Z,20.33
2019-02-22T20:16:04.817Z,20.97
2019-02-22T20:18:57.624Z,20.83
2019-02-22T20:24:59.822Z,21.90
2019-02-22T20:28:08.132Z,22.10
2019-02-22T20:30:28.453Z,22.10
2019-02-22T20:33:18.133Z,22.70
2019-02-22T20:36:13.621Z,23.10
2019-02-22T20:39:04.640Z,23.27
2019-02-22T20:41:56.349Z,23.50
2019-02-22T20:44:57.659Z,23.33
2019-02-22T20:57:34.829Z,23.87
2019-02-22T21:00:54.900Z,23.13
2019-02-22T21:27:34.739Z,21.30
2019-02-22T21:36:52.356Z,24.90
2019-02-22T21:39:44.421Z,23.87
2019-02-22T21:42:20.128Z,22.43
2019-02-22T21:45:08.445Z,22.53
2019-02-22T21:47:54.672Z,22.73
2019-02-22T21:57:06.937Z,22.77
2019-02-22T22:00:05.206Z,22.17
2019-02-22T22:02:41.753Z,22.70
2019-02-22T22:05:34.182Z,23.87
2019-02-22T22:10:52.984Z,23.37
2019-02-22T22:22:53.360Z,21.87
2019-02-22T22:28:47.722Z,22.53
2019-02-22T22:35:02.754Z,21.23
2019-02-22T22:38:50.410Z,22.07
2019-02-22T22:43:24.734Z,20.53
